Terminal Aerodrome Forecast
Issued by NWS

Home | Current Version | Previous Version | Text Only | Print | Product List | Glossary On
Versions: 1 2 3 4 5 6 7 8 9 10 11 12 13 14
000
FTUS45 KTFX 031129
TAFHVR
TAF
KHVR 031129Z 0312/0412 35006KT P6SM BKN180
     FM040100 04080KT P6SM OVC090
     FM040700 05006KT 6SM BR VCSH BKN035=

USA.gov is the U.S. government's official web portal to all federal, state and local government web resources and services.